EZY66X EGPH-EGKK
Flight info
| Callsign | EZY66X |
|---|---|
| Flight time | N/A |
| Altitude | 33000 |
| Route | GOSAM P600 FENIK L612 NAVSO DCT KEPAD L151 DISIT |
| Aircraft | A20N/M-SDE2E3FGHIJ1RWXYZ/LB1 |
Departure
| Time | 2026-04-23 18:10 |
|---|---|
| Airport | Edinburgh Airport (EGPH) |
Arrival
| Time | N/A |
|---|---|
| Airport | London Gatwick Airport (EGKK) |
| Time | Latitude | Longitude | Altitude | Speed | Heading |
|---|---|---|---|---|---|
| 2026-04-23 18:10 | 55.97069 | -3.32543 | 1331 ft | 154 kts | 39° |
| 2026-04-23 18:10 | 55.97914 | -3.31240 | 1783 ft | 172 kts | 40° |
| 2026-04-23 18:10 | 55.98878 | -3.29703 | 2269 ft | 195 kts | 41° |
| 2026-04-23 18:11 | 55.99871 | -3.28017 | 3103 ft | 192 kts | 46° |
| 2026-04-23 18:11 | 56.00761 | -3.26258 | 3844 ft | 204 kts | 46° |
| 2026-04-23 18:11 | 56.01937 | -3.24926 | 4616 ft | 205 kts | 13° |
| 2026-04-23 18:11 | 56.03409 | -3.24970 | 5113 ft | 225 kts | 340° |
| 2026-04-23 18:12 | 56.04782 | -3.26544 | 5375 ft | 251 kts | 310° |
| 2026-04-23 18:12 | 56.05636 | -3.29378 | 5501 ft | 267 kts | 283° |
| 2026-04-23 18:12 | 56.05658 | -3.32672 | 5508 ft | 267 kts | 255° |
| 2026-04-23 18:12 | 56.04839 | -3.35573 | 5511 ft | 268 kts | 232° |
| 2026-04-23 18:13 | 56.03672 | -3.38178 | 5506 ft | 268 kts | 233° |
| 2026-04-23 18:13 | 56.02655 | -3.40962 | 5507 ft | 267 kts | 242° |
| 2026-04-23 18:13 | 56.01870 | -3.43984 | 5507 ft | 267 kts | 249° |
| 2026-04-23 18:13 | 56.01272 | -3.47118 | 5507 ft | 267 kts | 253° |
| 2026-04-23 18:14 | 56.00940 | -3.49235 | 5507 ft | 267 kts | 255° |
| 2026-04-23 18:14 | 56.00334 | -3.53534 | 5507 ft | 267 kts | 256° |
| 2026-04-23 18:14 | 55.99891 | -3.56761 | 5507 ft | 267 kts | 256° |
| 2026-04-23 18:14 | 55.99444 | -3.59983 | 5508 ft | 267 kts | 256° |
| 2026-04-23 18:15 | 55.99052 | -3.62767 | 5506 ft | 267 kts | 256° |
| 2026-04-23 18:15 | 55.98596 | -3.65981 | 5507 ft | 267 kts | 256° |
| 2026-04-23 18:15 | 55.98137 | -3.69193 | 5506 ft | 267 kts | 256° |
| 2026-04-23 18:15 | 55.97676 | -3.72409 | 5507 ft | 267 kts | 256° |
| 2026-04-23 18:16 | 55.97213 | -3.75624 | 5506 ft | 267 kts | 256° |
| 2026-04-23 18:16 | 55.96748 | -3.78845 | 5507 ft | 267 kts | 256° |
| 2026-04-23 18:16 | 55.96284 | -3.82057 | 5507 ft | 268 kts | 256° |
| 2026-04-23 18:17 | 55.95353 | -3.88487 | 5507 ft | 267 kts | 256° |
| 2026-04-23 18:17 | 55.94892 | -3.91655 | 5507 ft | 267 kts | 256° |
| 2026-04-23 18:17 | 55.94424 | -3.94870 | 5508 ft | 267 kts | 256° |
| 2026-04-23 18:17 | 55.93925 | -3.98108 | 5506 ft | 267 kts | 251° |
| 2026-04-23 18:18 | 55.93145 | -4.01113 | 5507 ft | 267 kts | 238° |
| 2026-04-23 18:18 | 55.90514 | -4.06029 | 5507 ft | 269 kts | 218° |